Flight Track Log - Related Links

Times and Time Zones

All times are in EDT time to prevent confusion due to time zone crossing. See the SWA1512 flight status page for this flight to view local times or setup timezone preferences in your user account.

Time Position Orientation Groundspeed Altitude Reporting Facility
EDT Latitude Longitude Course Direction KTS MPH feet Rate Location/Type
Sat 07:31:30 PM 38.8458 -121.6008 360° North 239 275 6,200  Level Oakland Center
Sat 07:32:31 PM 38.9183 -121.6361 339° North 271 312 9,500 3,098 Climbing Oakland Center
Sat 07:33:32 PM 38.9972 -121.6683 342° North 298 343 12,500 3,000 Climbing Oakland Center
Sat 07:34:33 PM 39.0908 -121.6853 352° North 332 382 15,600 3,220 Climbing Oakland Center
Sat 07:35:35 PM 39.1947 -121.7047 352° North 369 425 19,100 3,220 Climbing Oakland Center
Sat 07:36:36 PM 39.3025 -121.7253 352° North 389 448 22,200 2,410 Climbing Oakland Center
Sat 07:37:37 PM 39.4147 -121.7497 350° North 406 467 24,000 2,066 Climbing Oakland Center
Sat 07:38:38 PM 39.5261 -121.7700 352° North 413 475 26,400 2,557 Climbing Oakland Center
Sat 07:39:39 PM 39.6675 -121.7972 352° North 428 493 29,200 2,361 Climbing Oakland Center
Sat 07:40:40 PM 39.7878 -121.8222 351° North 438 504 31,200 2,115 Climbing Oakland Center
Sat 07:41:41 PM 39.9061 -121.8450 352° North 435 501 33,500 1,918 Climbing Oakland Center
Sat 07:42:42 PM 40.0239 -121.8683 351° North 433 498 35,100 1,561 Climbing Oakland Center
Sat 07:43:44 PM 40.1422 -121.8931 351° North 435 501 36,700 1,610 Climbing Oakland Center
Sat 07:44:45 PM 40.2592 -121.9158 352° North 432 497 38,400 1,377 Climbing Oakland Center
Sat 07:45:46 PM 40.3742 -121.9392 351° North 426 490 39,500 787 Climbing Oakland Center
Sat 07:46:47 PM 40.5142 -121.9681 351° North 428 493 40,000 246 Climbing Oakland Center
Sat 07:47:48 PM 40.6306 -121.9928 351° North 427 491 40,000  Level Oakland Center
Sat 07:48:49 PM 40.7453 -122.0147 352° North 421 484 40,000  Level Oakland Center
Sat 07:49:51 PM 40.8619 -122.0392 351° North 423 487 40,000  Level Oakland Center
Sat 07:50:52 PM 40.9794 -122.0636 351° North 427 491 40,000  Level Oakland Center
Sat 07:51:53 PM 41.0978 -122.0897 351° North 430 495 40,000  Level Oakland Center
Sat 07:52:43 PM 41.1942 -122.1125 350° North 438 504 40,000  Level Seattle Center
Sat 07:53:43 PM 41.3133 -122.1367 351° North 435 501 40,000  Level Seattle Center
Sat 07:54:44 PM 41.4303 -122.1603 351° North 428 493 40,000  Level Seattle Center
Sat 07:55:45 PM 41.5503 -122.1847 351° North 431 496 40,000  Level Seattle Center
Sat 07:56:46 PM 41.6675 -122.2100 351° North 426 490 40,000  Level Seattle Center
Sat 07:57:46 PM 41.7839 -122.2336 351° North 421 484 40,000  Level Seattle Center
Sat 07:58:47 PM 41.9006 -122.2583 351° North 420 483 40,000  Level Seattle Center
Sat 07:59:48 PM 42.0203 -122.2828 351° North 427 491 40,000  Level Seattle Center
Sat 08:00:48 PM 42.1394 -122.3081 351° North 428 493 40,000  Level Seattle Center
Sat 08:01:49 PM 42.2594 -122.3339 351° North 431 496 40,000  Level Seattle Center
Sat 08:02:50 PM 42.3767 -122.3581 351° North 424 488 40,000  Level Seattle Center
Sat 08:03:50 PM 42.4961 -122.3856 350° North 428 493 40,000  Level Seattle Center
Sat 08:04:51 PM 42.6150 -122.4108 351° North 429 494 40,000  Level Seattle Center
Sat 08:05:52 PM 42.7533 -122.4406 351° North 425 489 40,000  Level Seattle Center
Sat 08:06:53 PM 42.8694 -122.4661 351° North 422 486 40,000  Level Seattle Center
Sat 08:07:53 PM 42.9864 -122.4917 351° North 424 488 40,000  Level Seattle Center
Sat 08:08:54 PM 43.1014 -122.5169 351° North 417 480 40,000  Level Seattle Center
Sat 08:09:55 PM 43.2181 -122.5419 351° North 420 483 40,000  Level Seattle Center
Sat 08:10:55 PM 43.3314 -122.5683 350° North 412 474 40,000  Level Seattle Center
Sat 08:11:56 PM 43.4442 -122.5933 351° North 409 471 40,000  Level Seattle Center
Sat 08:12:57 PM 43.5564 -122.6178 351° North 408 470 40,000 -50 Level Seattle Center
Sat 08:13:57 PM 43.6700 -122.6444 350° North 412 474 39,900 -1,190 Descending Seattle Center
Sat 08:14:58 PM 43.7797 -122.6672 351° North 399 459 37,600 -2,213 Descending Seattle Center
Sat 08:15:59 PM 43.8858 -122.6919 350° North 387 445 35,400 -2,083 Descending Seattle Center
Sat 08:16:59 PM 43.9875 -122.7144 351° North 372 428 33,400 -2,033 Descending Seattle Center
Sat 08:18:00 PM 44.0839 -122.7361 351° North 357 411 31,300 -1,967 Descending Seattle Center
Sat 08:19:01 PM 44.1767 -122.7500 354° North 342 394 29,400 -2,132 Descending Seattle Center
Sat 08:20:01 PM 44.2800 -122.7389 North 317 365 27,000 -2,033 Descending Seattle Center
Sat 08:21:02 PM 44.3553 -122.7319 North 310 357 25,300 -1,736 Descending Seattle Center
Sat 08:22:02 PM 44.4389 -122.7247 North 305 351 23,500 -1,785 Descending Seattle Center
Sat 08:23:03 PM 44.5203 -122.7167 North 296 341 21,700 -1,770 Descending Seattle Center
Sat 08:24:04 PM 44.6017 -122.7092 North 295 339 19,900 -1,785 Descending Seattle Center
Sat 08:25:04 PM 44.6847 -122.7003 North 299 344 18,100 -1,933 Descending Seattle Center
Sat 08:25:34 PM 44.7361 -122.6942 North 297 342 17,000 -1,770 Descending Seattle Center
Sat 08:26:05 PM 44.7658 -122.6919 North 297 342 16,300 -1,800 Descending Seattle Center
Sat 08:26:34 PM 44.8167 -122.6861 North 290 334 15,200 -1,967 Descending Seattle Center
Sat 08:27:06 PM 44.8611 -122.6842 North 289 333 14,300 -1,180 Descending Seattle Center
Sat 08:27:35 PM 44.8964 -122.6936 349° North 311 358 14,000 -900 Descending Seattle Center
Sat 08:28:06 PM 44.9431 -122.7036 351° North 298 343 13,400 -1,000 Descending Seattle Center
Sat 08:28:35 PM 44.9867 -122.7122 352° North 303 349 13,000 -984 Descending Seattle Center
Sat 08:29:07 PM 45.0269 -122.7208 351° North 304 350 12,400 -1,068 Descending Seattle Center
Sat 08:29:48 PM 45.0836 -122.7311 353° North 302 348 11,700 -1,082 Descending Seattle Center
Sat 08:30:08 PM 45.1083 -122.7364 351° North 301 346 11,300 -1,180 Descending Seattle Center
Sat 08:30:49 PM 45.1631 -122.7483 351° North 289 333 10,500 -1,300 Descending Seattle Center
Sat 08:31:08 PM 45.1869 -122.7522 353° North 290 334 10,000 -1,556 Descending Seattle Center
Sat 08:31:43 PM 45.2397 -122.7633 352° North 287 330 9,100 -1,377 Descending Seattle Center
Sat 08:32:09 PM 45.2642 -122.7692 350° North 284 327 8,600 -1,347 Descending Seattle Center
Sat 08:32:32 PM 45.3011 -122.7783 350° North 283 326 8,000 -1,475 Descending Seattle Center
Sat 08:33:10 PM 45.3414 -122.7861 352° North 282 325 7,100 -1,455 Descending Seattle Center
Sat 08:33:38 PM 45.3844 -122.7939 353° North 275 316 6,400 -1,400 Descending Seattle Center
Sat 08:34:10 PM 45.4167 -122.8028 349° North 278 320 5,700 -1,377 Descending Seattle Center
Sat 08:34:39 PM 45.4569 -122.8108 352° North 261 300 5,000 -1,377 Descending Seattle Center
Sat 08:35:11 PM 45.4875 -122.8178 351° North 265 305 4,300 -1,433 Descending Seattle Center
Sat 08:35:46 PM 45.5383 -122.8272 353° North 255 293 3,400 -1,279 Descending Seattle Center
Sat 08:36:12 PM 45.5575 -122.8294 355° North 257 296 3,000 -500 Descending Seattle Center
Sat 08:36:46 PM 45.6031 -122.8256 North 220 253 2,900 -200 Descending Seattle Center
Sat 08:37:12 PM 45.6197 -122.8206 12° North 234 269 2,800 -197 Descending Seattle Center
Sat 08:37:47 PM 45.6425 -122.7850 47° Northeast 152 175 2,700 -393 Descending Seattle Center
Sat 08:38:13 PM 45.6422 -122.7683 91° East 175 201 2,400 -982 Descending Seattle Center
Sat 08:38:42 PM 45.6356 -122.7292 104° East 150 173 1,800 -984 Descending Seattle Center
Sat 08:39:14 PM 45.6306 -122.7083 109° East 163 188 1,400 -600 Descending Seattle Center
Sat 08:39:42 PM 45.6217 -122.6700 108° East 146 168 1,200 -500 Descending Seattle Center
Sat 08:40:14 PM 45.6178 -122.6539 109° East 156 180 900 -716 Descending Seattle Center
Sat 08:40:49 PM 45.6033 -122.6219 123° Southeast 122 140 400 -393 Descending Seattle Center
Sat 08:41:15 PM 45.5981 -122.6003 109° East 148 170 500 231 Climbing Seattle Center

Login

Don't have an account? Register now (free) for customized features, flight alerts, and more!